Impacts METAR Board
IDs:

KSAN - San Diego Intl Arpt, CA, US

Updated at: 1600 UTC 20 Aug 2019
Potential Impact None Slight Moderate High
Time 20/04Z 20/05Z 20/06Z 20/07Z 20/08Z 20/09Z 20/10Z 20/11Z 20/12Z 20/13Z 20/14Z 20/15Z 20/16Z
Temp69 69 69 69 68 68 69 69 68 68 68 69 70
Dewpt64 64 64 64 64 64 64 64 63 64 64 64 64
Altim29.91 29.93 29.93 29.93 29.93 29.93 29.93 29.93 29.94 29.95 29.96 29.97 29.97
VIS10 10 10 10 10 10 10 10 10 10 10 10 10
CIG-- -- 10 10 10 10 10 10 10 9 9 10 13
CoverFEWSCTBKNBKNBKNBKNOVCOVCOVCOVCOVCOVCBKN
FltCatVFRVFRMVFRMVFRMVFRMVFRMVFRMVFRMVFRIFRIFRMVFRMVFR
WX--------------------------
WDir330340340330340320010035032050300
WSpd5 6 5 5 3 5 0 4 0 4 4 4 5
WGst-- -- -- -- -- -- -- -- -- -- -- -- --
Raw hourly METARs
KSAN 200351Z 33005KT 10SM FEW018 21/18 A2991 RMK AO2 SLP129 T02060178
KSAN 200451Z 34006KT 10SM SCT011 SCT020 21/18 A2993 RMK AO2 SLP134 T02060178
KSAN 200551Z 34005KT 10SM BKN010 21/18 A2993 RMK AO2 SLP136 T02060178 10228 20200 51011
KSAN 200651Z 33005KT 10SM BKN010 21/18 A2993 RMK AO2 SLP136 T02060178
KSAN 200751Z 34003KT 10SM BKN010 20/18 A2993 RMK AO2 SLP134 T02000178 402500200
KSAN 200851Z 32005KT 10SM BKN010 20/18 A2993 RMK AO2 SLP136 T02000178 55001
KSAN 200951Z 00000KT 10SM OVC010 21/18 A2993 RMK AO2 SLP136 T02060178
KSAN 201051Z 01004KT 10SM OVC010 21/18 A2993 RMK AO2 SLP136 T02060178
KSAN 201151Z 00000KT 10SM OVC010 20/17 A2994 RMK AO2 SLP138 T02000172 10206 20200 53003
KSAN 201251Z 35004KT 10SM OVC009 20/18 A2995 RMK AO2 SLP142 T02000178
KSAN 201351Z 32004KT 10SM OVC009 20/18 A2996 RMK AO2 SLP144 T02000178
KSAN 201451Z 05004KT 10SM OVC010 21/18 A2997 RMK AO2 SLP147 T02060178 51009
KSAN 201551Z 30005KT 10SM BKN013 21/18 A2997 RMK AO2 SLP148 T02110178



Page loaded:  16:38 UTC  |   09:38 AM Pacific  |   10:38 AM Mountain  |   11:38 AM Central  |   12:38 PM Eastern

 

ADVISORIES

FORECASTS

FORECASTS

OBSERVATIONS

USER TOOLS

ABOUT US